This is the latest recevied weather packets stored in our database for station/object KD9IXX-13. If no packets are shown the sender has not sent any weather packets the latest 10 day(s).
| Time | Temp. | Humidity | Pressure | Rain* | Wind** | Luminosity | Snow |
|---|---|---|---|---|---|---|---|
| 1788019202 | 24.44° C | 78% | 1023.5 hPa | 0 mm | - | 467 W/m² | - |
| 1788017702 | 22.78° C | 82% | 1023.5 hPa | 0 mm | - | 296 W/m² | - |
| 1788017402 | 22.78° C | 82% | 1023.4 hPa | 0 mm | - | 278 W/m² | - |
| 1788016802 | 22.78° C | 84% | 1023.4 hPa | 0 mm | - | 244 W/m² | - |
| 1788016502 | 22.22° C | 83% | 1023.4 hPa | 0 mm | - | 233 W/m² | - |
| 1788016202 | 22.22° C | 84% | 1023.4 hPa | 0 mm | - | 223 W/m² | - |
| 1788015902 | 22.78° C | 84% | 1023.4 hPa | 0 mm | - | 227 W/m² | - |
| 1788015301 | 22.22° C | 84% | 1023.5 hPa | 0 mm | - | 238 W/m² | - |
| 1788014702 | 22.22° C | 83% | 1023.1 hPa | 0 mm | - | 277 W/m² | - |
| 1788012302 | 21.11° C | 86% | 1023 hPa | 0 mm | - | 191 W/m² | - |
| 1788010502 | 20.56° C | 86% | 1022.9 hPa | 0 mm | - | 220 W/m² | - |
| 1788010201 | 20.56° C | 86% | 1023 hPa | 0 mm | - | 235 W/m² | - |
| 1788009002 | 20° C | 89% | 1023 hPa | 0 mm | - | 144 W/m² | - |
| 1788007201 | 18.89° C | 91% | 1022.6 hPa | 0 mm | - | 110 W/m² | - |
| 1788006602 | 18.89° C | 92% | 1022.6 hPa | 0 mm | - | 88 W/m² | - |
| 1788006302 | 18.33° C | 92% | 1022.3 hPa | 0 mm | - | 78 W/m² | - |
| 1788006002 | 18.33° C | 93% | 1022.5 hPa | 0 mm | - | 74 W/m² | - |
| 1788005702 | 18.33° C | 93% | 1022.5 hPa | 0 mm | - | 69 W/m² | - |
| 1788005402 | 17.78° C | 94% | 1022.3 hPa | 0 mm | - | 63 W/m² | - |
| 1788005102 | 17.78° C | 95% | 1022 hPa | 0 mm | - | 59 W/m² | - |
| 1788004802 | 17.78° C | 96% | 1022.3 hPa | 0 mm | - | 52 W/m² | - |
| 1788003902 | 17.22° C | 96% | 1022.2 hPa | 0 mm | - | 32 W/m² | - |
| 1788003602 | 17.22° C | 96% | 1022.6 hPa | 0 mm | - | 25 W/m² | - |
| 1788001502 | 17.78° C | 95% | 1021.8 hPa | 0 mm | - | 0 W/m² | - |
| 1788000601 | 17.78° C | 95% | 1021.8 hPa | 0 mm | - | 0 W/m² | - |
* Rain latest hour (hover to see other rain measurements)
** Current wind speed in m/s (hover to see current wind gust speed)